Time;durP1;ratioP1;P1;durP2;ratioP2;P2;SDS_P1;SDS_P2;PMS_P1;PMS_P2;Temp;Humidity;BMP_temperature;BMP_pressure;BME280_temperature;BME280_humidity;BME280_pressure;Samples;Min_cycle;Max_cycle;Signal;HPM_P1;HPM_P2
2021/09/24 00:00:57;;;;;;;0.30;0.30;;;11.30;99.90;;;;;;5137127;27;20168;-67
2021/09/24 00:03:23;;;;;;;0.30;0.30;;;11.40;99.90;;;;;;5136965;27;20191;-68
2021/09/24 00:05:49;;;;;;;0.30;0.30;;;11.40;99.90;;;;;;5136991;27;20250;-68
2021/09/24 00:08:15;;;;;;;2.45;1.48;;;11.50;99.90;;;;;;5137008;27;20534;-67
2021/09/24 00:10:41;;;;;;;0.60;0.60;;;11.40;99.90;;;;;;5136957;27;20202;-68
2021/09/24 00:13:07;;;;;;;1.33;1.23;;;11.40;99.90;;;;;;5136647;27;20476;-67
2021/09/24 00:15:33;;;;;;;0.40;0.40;;;11.40;99.90;;;;;;5137028;27;20181;-66
2021/09/24 00:17:59;;;;;;;8.23;1.47;;;11.40;99.90;;;;;;5136905;27;20163;-67
2021/09/24 00:20:25;;;;;;;0.30;0.30;;;11.40;99.90;;;;;;5136666;27;20401;-67
2021/09/24 00:22:51;;;;;;;0.30;0.30;;;11.40;99.90;;;;;;5136762;27;20300;-68
2021/09/24 00:25:16;;;;;;;0.30;0.30;;;11.50;99.90;;;;;;5136588;27;20262;-68
2021/09/24 00:27:42;;;;;;;0.30;0.30;;;11.60;99.90;;;;;;5136745;27;20164;-67
2021/09/24 00:30:09;;;;;;;0.30;0.30;;;11.60;99.90;;;;;;5136494;27;20689;-68
2021/09/24 00:32:35;;;;;;;0.30;0.30;;;11.80;99.90;;;;;;5136666;27;20187;-68
2021/09/24 00:35:01;;;;;;;0.30;0.30;;;11.90;99.90;;;;;;5136315;27;20589;-67
2021/09/24 00:37:27;;;;;;;0.30;0.30;;;11.90;99.90;;;;;;5136600;27;20202;-66
2021/09/24 00:39:53;;;;;;;0.30;0.30;;;11.80;99.90;;;;;;5136553;27;20428;-68
2021/09/24 00:42:19;;;;;;;0.30;0.30;;;11.90;99.90;;;;;;5136316;27;20184;-68
2021/09/24 00:44:48;;;;;;;0.30;0.30;;;11.90;99.90;;;;;;5136087;27;20170;-67
2021/09/24 00:47:14;;;;;;;0.30;0.30;;;11.90;99.90;;;;;;5136014;27;20183;-68
2021/09/24 00:49:41;;;;;;;2.20;0.82;;;11.70;99.90;;;;;;5117038;27;20163;-66
2021/09/24 00:52:07;;;;;;;0.30;0.30;;;11.70;99.90;;;;;;5135984;27;20206;-68
2021/09/24 00:54:33;;;;;;;0.30;0.30;;;11.60;99.90;;;;;;5135854;27;20191;-67
2021/09/24 00:57:01;;;;;;;0.50;0.50;;;11.60;99.90;;;;;;5136033;27;20168;-68
2021/09/24 00:59:27;;;;;;;0.50;0.50;;;11.60;99.90;;;;;;5136099;27;20171;-67
2021/09/24 01:01:52;;;;;;;0.67;0.67;;;11.50;99.90;;;;;;5135780;27;20198;-68
2021/09/24 01:04:18;;;;;;;0.30;0.30;;;11.60;99.90;;;;;;5135709;27;20227;-68
2021/09/24 01:06:44;;;;;;;1.33;0.77;;;11.60;99.90;;;;;;5135886;27;20171;-68
2021/09/24 01:09:10;;;;;;;0.40;0.40;;;11.60;99.90;;;;;;5135963;27;20183;-67
2021/09/24 01:11:38;;;;;;;0.30;0.30;;;11.60;99.90;;;;;;5135561;27;20207;-66
2021/09/24 01:14:05;;;;;;;0.30;0.30;;;11.50;99.90;;;;;;5135719;27;20478;-67
2021/09/24 01:16:31;;;;;;;0.30;0.30;;;11.50;99.90;;;;;;5135561;27;20633;-67
2021/09/24 01:18:57;;;;;;;0.30;0.30;;;11.50;99.90;;;;;;5135599;27;20587;-67
2021/09/24 01:21:23;;;;;;;0.30;0.30;;;11.60;99.90;;;;;;5135650;27;20223;-66
2021/09/24 01:23:49;;;;;;;0.50;0.50;;;11.50;99.90;;;;;;5135315;27;20168;-66
2021/09/24 01:26:15;;;;;;;0.30;0.30;;;11.40;99.90;;;;;;5135714;27;20576;-68
2021/09/24 01:28:44;;;;;;;0.30;0.30;;;11.30;99.90;;;;;;5135510;27;20171;-68
2021/09/24 01:31:13;;;;;;;0.30;0.30;;;11.20;99.90;;;;;;5135167;27;20581;-68
2021/09/24 01:33:47;;;;;;;0.30;0.30;;;11.30;99.90;;;;;;5116615;27;20262;-68
2021/09/24 01:36:12;;;;;;;0.85;0.82;;;11.30;99.90;;;;;;5135519;27;20166;-66
2021/09/24 01:38:39;;;;;;;0.30;0.30;;;11.30;99.90;;;;;;5135320;27;20171;-67
2021/09/24 01:41:05;;;;;;;0.30;0.30;;;11.40;99.90;;;;;;5134724;27;20176;-67
2021/09/24 01:43:35;;;;;;;0.30;0.30;;;11.40;99.90;;;;;;5134344;27;20620;-68
2021/09/24 01:46:02;;;;;;;0.30;0.30;;;11.40;99.90;;;;;;5134966;27;20228;-66
2021/09/24 01:48:28;;;;;;;0.85;0.85;;;11.40;99.90;;;;;;5134110;27;20175;-68
2021/09/24 01:50:53;;;;;;;0.30;0.30;;;11.40;99.90;;;;;;5134852;27;20656;-68
2021/09/24 01:53:19;;;;;;;0.30;0.30;;;11.50;99.90;;;;;;5133928;27;20183;-67
2021/09/24 01:55:45;;;;;;;0.60;0.60;;;11.50;99.90;;;;;;5134768;27;20167;-68
2021/09/24 01:58:11;;;;;;;0.30;0.30;;;11.50;99.90;;;;;;5134880;27;20524;-67
2021/09/24 02:00:37;;;;;;;0.40;0.40;;;11.50;99.90;;;;;;5133690;27;20172;-68
2021/09/24 02:03:03;;;;;;;0.30;0.30;;;11.40;99.90;;;;;;5134769;27;20212;-66
2021/09/24 02:05:28;;;;;;;2.23;1.67;;;11.50;99.90;;;;;;5133767;27;20166;-67
2021/09/24 02:07:54;;;;;;;0.30;0.30;;;11.50;99.90;;;;;;5134367;27;20625;-68
2021/09/24 02:10:20;;;;;;;0.70;0.70;;;11.40;99.90;;;;;;5134472;27;20187;-68
2021/09/24 02:12:46;;;;;;;0.30;0.30;;;11.40;99.90;;;;;;5133546;27;20183;-67
2021/09/24 02:15:12;;;;;;;0.30;0.30;;;11.40;99.90;;;;;;5134347;27;20633;-66
2021/09/24 02:17:39;;;;;;;0.30;0.30;;;11.40;99.90;;;;;;5132795;27;20172;-67
2021/09/24 02:20:06;;;;;;;0.30;0.30;;;11.30;99.90;;;;;;5133530;27;20174;-68
2021/09/24 02:22:32;;;;;;;0.55;0.55;;;11.30;99.90;;;;;;5134652;27;20183;-67
2021/09/24 02:24:57;;;;;;;0.30;0.30;;;11.30;99.90;;;;;;5133090;27;20300;-68
2021/09/24 02:27:23;;;;;;;0.30;0.30;;;11.30;99.90;;;;;;5134437;27;20882;-68
2021/09/24 02:29:49;;;;;;;0.30;0.30;;;11.40;99.90;;;;;;5134526;28;20163;-67
2021/09/24 02:32:14;;;;;;;0.30;0.30;;;11.50;99.90;;;;;;5134456;28;20187;-68
2021/09/24 02:34:40;;;;;;;0.30;0.30;;;11.60;99.90;;;;;;5134486;28;20389;-68
2021/09/24 02:37:06;;;;;;;0.40;0.40;;;11.60;99.90;;;;;;5134689;28;20730;-67
2021/09/24 02:39:32;;;;;;;0.30;0.30;;;11.80;99.90;;;;;;5134510;28;20251;-68
2021/09/24 02:41:57;;;;;;;0.30;0.30;;;11.80;99.90;;;;;;5134489;28;20786;-67
2021/09/24 02:44:23;;;;;;;0.30;0.30;;;11.80;99.90;;;;;;5134342;28;20523;-68
2021/09/24 02:46:49;;;;;;;0.57;0.57;;;11.90;99.90;;;;;;5134121;28;20193;-67
2021/09/24 02:49:14;;;;;;;0.40;0.40;;;12.00;99.90;;;;;;5134485;28;20163;-66
2021/09/24 02:51:40;;;;;;;0.30;0.30;;;12.00;99.90;;;;;;5134276;28;20282;-67
2021/09/24 02:54:06;;;;;;;0.50;0.50;;;12.10;99.90;;;;;;5133968;28;20202;-67
2021/09/24 02:56:31;;;;;;;0.30;0.30;;;12.10;99.90;;;;;;5134216;28;20159;-67
2021/09/24 02:58:57;;;;;;;0.30;0.30;;;12.00;99.90;;;;;;5134404;28;20167;-67
2021/09/24 03:01:23;;;;;;;0.40;0.40;;;12.10;99.90;;;;;;5134327;28;20188;-67
2021/09/24 03:03:48;;;;;;;0.30;0.30;;;12.30;99.90;;;;;;5134183;28;20176;-67
2021/09/24 03:06:14;;;;;;;0.30;0.30;;;12.40;99.90;;;;;;5134316;28;20190;-68
2021/09/24 03:08:40;;;;;;;0.30;0.30;;;12.40;99.90;;;;;;5134070;28;20248;-68
2021/09/24 03:11:06;;;;;;;0.30;0.30;;;12.40;99.90;;;;;;5134386;27;20330;-68
2021/09/24 03:13:32;;;;;;;0.30;0.30;;;12.50;99.90;;;;;;5137829;27;20175;-68
2021/09/24 03:15:59;;;;;;;0.30;0.30;;;12.60;99.90;;;;;;5138066;27;20390;-68
2021/09/24 03:18:24;;;;;;;0.30;0.30;;;12.70;99.90;;;;;;5137887;27;20450;-67
2021/09/24 03:20:53;;;;;;;0.30;0.30;;;12.70;99.90;;;;;;5138024;27;20633;-67
2021/09/24 03:23:20;;;;;;;0.30;0.30;;;12.70;99.90;;;;;;5137757;27;20196;-68
2021/09/24 03:25:47;;;;;;;0.90;0.90;;;12.80;99.90;;;;;;5137806;27;20433;-68
2021/09/24 03:28:13;;;;;;;1.03;1.00;;;12.80;99.90;;;;;;5137636;27;20436;-68
2021/09/24 03:30:39;;;;;;;0.70;0.70;;;12.90;99.90;;;;;;5136218;27;20472;-66
2021/09/24 03:33:05;;;;;;;0.30;0.30;;;12.90;99.90;;;;;;5135555;27;20818;-68
2021/09/24 03:35:31;;;;;;;0.30;0.30;;;12.90;99.90;;;;;;5135408;27;20436;-68
2021/09/24 03:37:56;;;;;;;0.30;0.30;;;12.90;99.90;;;;;;5135486;27;20587;-67
2021/09/24 03:40:22;;;;;;;0.30;0.30;;;12.80;99.90;;;;;;5136198;27;20288;-68
2021/09/24 03:42:48;;;;;;;0.40;0.40;;;12.80;99.90;;;;;;5136834;27;20188;-67
2021/09/24 03:45:14;;;;;;;0.60;0.60;;;12.90;99.90;;;;;;5118454;27;20255;-67
2021/09/24 03:47:40;;;;;;;1.00;0.97;;;12.90;99.90;;;;;;5137608;27;20720;-67
2021/09/24 03:50:06;;;;;;;1.23;1.23;;;12.90;99.90;;;;;;5137488;27;20167;-67
2021/09/24 03:52:32;;;;;;;0.30;0.30;;;13.00;99.90;;;;;;5137404;27;20460;-68
2021/09/24 03:54:57;;;;;;;0.30;0.30;;;13.00;99.90;;;;;;5137245;27;20420;-68
2021/09/24 03:57:23;;;;;;;0.30;0.30;;;13.20;99.90;;;;;;5137264;27;20257;-67
2021/09/24 03:59:49;;;;;;;2.20;2.10;;;13.30;99.90;;;;;;5137256;27;20250;-67
2021/09/24 04:02:14;;;;;;;0.50;0.50;;;13.30;99.90;;;;;;5137379;27;20222;-67
2021/09/24 04:04:40;;;;;;;0.30;0.30;;;13.40;99.90;;;;;;5136888;27;20195;-68
2021/09/24 04:07:06;;;;;;;0.30;0.30;;;13.40;99.90;;;;;;5118560;27;20185;-66
2021/09/24 04:09:32;;;;;;;0.30;0.30;;;13.40;99.90;;;;;;5137005;27;20242;-68
2021/09/24 04:11:57;;;;;;;0.30;0.30;;;13.50;99.90;;;;;;5136833;27;20209;-68
2021/09/24 04:14:23;;;;;;;0.30;0.30;;;13.40;99.90;;;;;;5136780;27;20484;-68
2021/09/24 04:16:49;;;;;;;0.30;0.30;;;13.40;99.90;;;;;;5136949;27;20174;-66
2021/09/24 04:19:15;;;;;;;0.30;0.30;;;13.40;99.90;;;;;;5136986;27;20250;-68
2021/09/24 04:21:41;;;;;;;0.40;0.40;;;13.40;99.90;;;;;;5136857;27;20192;-68
2021/09/24 04:24:06;;;;;;;0.30;0.30;;;13.40;99.90;;;;;;5135337;27;20182;-68
2021/09/24 04:26:32;;;;;;;0.30;0.30;;;13.40;99.90;;;;;;5136800;27;20403;-67
2021/09/24 04:29:00;;;;;;;0.70;0.70;;;13.40;99.90;;;;;;5136678;27;20199;-68
2021/09/24 04:31:27;;;;;;;0.30;0.30;;;13.40;99.90;;;;;;5136508;27;20456;-68
2021/09/24 04:33:53;;;;;;;0.30;0.30;;;13.40;99.90;;;;;;5136341;27;20405;-66
2021/09/24 04:36:18;;;;;;;0.30;0.30;;;13.20;99.90;;;;;;5136598;27;20400;-68
2021/09/24 04:38:44;;;;;;;0.60;0.60;;;13.20;99.90;;;;;;5136422;27;20167;-68
2021/09/24 04:41:09;;;;;;;0.30;0.30;;;13.30;99.90;;;;;;5136336;27;20167;-68
2021/09/24 04:43:35;;;;;;;0.30;0.30;;;13.40;99.90;;;;;;5135998;27;20560;-68
2021/09/24 04:46:01;;;;;;;0.30;0.30;;;13.50;99.90;;;;;;5136237;27;20171;-67
2021/09/24 04:48:26;;;;;;;0.60;0.60;;;13.50;99.90;;;;;;5136427;27;20175;-67
2021/09/24 04:50:52;;;;;;;0.30;0.30;;;13.40;99.90;;;;;;5136253;27;20281;-68
2021/09/24 04:53:18;;;;;;;0.30;0.30;;;13.40;99.90;;;;;;5135854;27;20675;-68
2021/09/24 04:55:43;;;;;;;0.40;0.40;;;13.40;99.90;;;;;;5136089;27;20171;-68
2021/09/24 04:58:09;;;;;;;0.30;0.30;;;13.40;99.90;;;;;;5136338;27;20256;-66
2021/09/24 05:00:34;;;;;;;0.73;0.73;;;13.30;99.90;;;;;;5136108;27;20172;-66
2021/09/24 05:03:00;;;;;;;0.30;0.30;;;13.30;99.90;;;;;;5136019;27;20198;-67
2021/09/24 05:05:26;;;;;;;0.90;0.90;;;13.30;99.90;;;;;;5135878;27;20657;-68
2021/09/24 05:07:52;;;;;;;0.60;0.60;;;13.30;99.90;;;;;;5135787;27;20636;-68
2021/09/24 05:10:17;;;;;;;0.30;0.30;;;13.30;99.90;;;;;;5135862;27;20445;-68
2021/09/24 05:12:43;;;;;;;0.30;0.30;;;13.40;99.90;;;;;;5135664;27;20207;-68
2021/09/24 05:15:09;;;;;;;0.30;0.30;;;13.40;99.90;;;;;;5135522;27;20195;-68
2021/09/24 05:17:35;;;;;;;0.60;0.60;;;13.40;99.90;;;;;;5135799;27;20203;-68
2021/09/24 05:20:00;;;;;;;0.50;0.50;;;13.50;99.90;;;;;;5135701;27;20436;-68
2021/09/24 05:22:26;;;;;;;0.40;0.40;;;13.40;99.90;;;;;;5135445;27;20191;-68
2021/09/24 05:24:52;;;;;;;2.60;0.67;;;13.30;99.90;;;;;;5135440;27;20537;-68
2021/09/24 05:27:18;;;;;;;0.30;0.30;;;13.30;99.90;;;;;;5135440;27;20167;-67
2021/09/24 05:29:43;;;;;;;0.50;0.50;;;13.30;99.90;;;;;;5135561;27;20174;-68
2021/09/24 05:32:13;;;;;;;0.53;0.53;;;13.30;99.90;;;;;;5135177;27;20460;-67
2021/09/24 05:34:40;;;;;;;0.50;0.50;;;13.30;99.90;;;;;;5134784;27;20167;-67
2021/09/24 05:37:06;;;;;;;1.33;1.23;;;13.40;99.90;;;;;;5135253;27;20399;-68
2021/09/24 05:39:31;;;;;;;0.83;0.83;;;13.40;99.90;;;;;;5135196;27;20466;-68
2021/09/24 05:41:58;;;;;;;0.40;0.40;;;13.50;99.90;;;;;;5135331;27;20471;-67
2021/09/24 05:44:24;;;;;;;0.30;0.30;;;13.50;99.90;;;;;;5134929;27;20656;-68
2021/09/24 05:46:49;;;;;;;0.30;0.30;;;13.70;99.90;;;;;;5134983;27;20421;-67
2021/09/24 05:49:15;;;;;;;0.37;0.37;;;13.80;99.90;;;;;;5134958;27;20692;-68
2021/09/24 05:51:41;;;;;;;0.30;0.30;;;13.90;99.90;;;;;;5134827;27;20203;-67
2021/09/24 05:54:06;;;;;;;0.30;0.30;;;14.00;99.90;;;;;;5134894;27;20601;-67
2021/09/24 05:56:32;;;;;;;0.40;0.40;;;14.00;99.90;;;;;;5135129;27;20233;-68
2021/09/24 05:58:57;;;;;;;0.30;0.30;;;14.00;99.90;;;;;;5134969;27;20159;-68
2021/09/24 06:01:23;;;;;;;0.30;0.30;;;14.10;99.90;;;;;;5134930;27;20215;-69
2021/09/24 06:03:49;;;;;;;0.40;0.40;;;14.30;99.90;;;;;;5134578;27;20174;-68
2021/09/24 06:06:15;;;;;;;0.90;0.90;;;14.40;99.90;;;;;;5134749;27;20254;-68
2021/09/24 06:08:41;;;;;;;0.30;0.30;;;14.60;99.90;;;;;;5134954;27;20175;-67
2021/09/24 06:11:07;;;;;;;0.30;0.30;;;14.80;99.90;;;;;;5116232;27;20730;-67
2021/09/24 06:13:32;;;;;;;0.30;0.30;;;14.90;99.90;;;;;;5134482;27;20548;-68
2021/09/24 06:15:58;;;;;;;1.00;1.00;;;15.00;99.90;;;;;;5134834;27;20171;-68
2021/09/24 06:18:29;;;;;;;0.40;0.40;;;15.10;99.90;;;;;;5134719;27;20312;-68
2021/09/24 06:20:57;;;;;;;0.33;0.33;;;15.20;99.90;;;;;;5134821;27;20189;-68
2021/09/24 06:23:22;;;;;;;0.77;0.77;;;15.30;99.90;;;;;;5134249;27;20499;-68
2021/09/24 06:25:48;;;;;;;1.37;1.27;;;15.40;99.90;;;;;;5134518;27;20436;-68
2021/09/24 06:28:14;;;;;;;0.30;0.30;;;15.40;99.90;;;;;;5134561;27;20159;-68
2021/09/24 06:30:39;;;;;;;0.80;0.80;;;15.50;99.90;;;;;;5134507;27;20192;-67
2021/09/24 06:33:05;;;;;;;0.50;0.50;;;15.60;99.90;;;;;;5134300;28;20194;-68
2021/09/24 06:35:31;;;;;;;0.30;0.30;;;15.60;99.90;;;;;;5134133;28;20235;-67
2021/09/24 06:37:57;;;;;;;0.70;0.70;;;15.60;99.90;;;;;;5134231;28;20164;-69
2021/09/24 06:40:22;;;;;;;0.40;0.40;;;15.80;99.90;;;;;;5134468;28;20169;-68
2021/09/24 06:42:48;;;;;;;0.63;0.63;;;16.70;99.90;;;;;;5134244;28;20448;-69
2021/09/24 06:45:14;;;;;;;0.30;0.30;;;17.60;98.90;;;;;;5134203;27;20167;-68
2021/09/24 06:47:41;;;;;;;0.50;0.50;;;18.10;96.60;;;;;;5137446;27;20187;-68
2021/09/24 06:50:07;;;;;;;0.40;0.40;;;18.30;95.00;;;;;;5138781;27;20405;-67
2021/09/24 06:52:33;;;;;;;0.40;0.40;;;18.40;95.00;;;;;;5138294;27;20452;-69
2021/09/24 06:54:59;;;;;;;0.83;0.83;;;18.30;95.20;;;;;;5137274;27;20397;-70
2021/09/24 06:57:25;;;;;;;0.57;0.57;;;18.30;95.70;;;;;;5138726;27;20190;-72
2021/09/24 06:59:51;;;;;;;0.30;0.30;;;18.00;95.90;;;;;;5138516;27;20488;-71
2021/09/24 07:02:16;;;;;;;0.40;0.40;;;17.50;96.40;;;;;;5119955;27;20887;-70
2021/09/24 07:04:42;;;;;;;0.40;0.40;;;17.30;97.50;;;;;;5119801;27;20259;-69
2021/09/24 07:07:09;;;;;;;0.30;0.30;;;17.50;97.70;;;;;;5138521;27;20196;-69
2021/09/24 07:09:35;;;;;;;0.30;0.30;;;17.90;96.60;;;;;;5138652;27;20216;-69
2021/09/24 07:12:01;;;;;;;0.40;0.40;;;18.50;96.00;;;;;;5138090;27;20540;-68
2021/09/24 07:14:26;;;;;;;0.70;0.70;;;19.10;95.20;;;;;;5138077;27;20433;-66
2021/09/24 07:16:52;;;;;;;0.93;0.93;;;19.20;94.30;;;;;;5138030;27;20168;-67
2021/09/24 07:19:18;;;;;;;0.40;0.40;;;19.00;94.50;;;;;;5138186;27;20160;-68
2021/09/24 07:21:44;;;;;;;1.40;1.40;;;18.90;95.10;;;;;;5119815;27;20227;-68
2021/09/24 07:24:10;;;;;;;0.30;0.30;;;18.90;95.60;;;;;;5137916;27;20689;-69
2021/09/24 07:26:36;;;;;;;0.40;0.40;;;18.90;95.20;;;;;;5119827;27;20500;-69
2021/09/24 07:29:03;;;;;;;0.67;0.67;;;18.80;94.70;;;;;;5137991;27;20175;-68
2021/09/24 07:31:29;;;;;;;0.30;0.30;;;18.90;94.30;;;;;;5137587;27;20455;-68
2021/09/24 07:33:55;;;;;;;0.40;0.40;;;19.10;94.40;;;;;;5137744;27;20385;-68
2021/09/24 07:36:22;;;;;;;0.40;0.40;;;19.20;95.00;;;;;;5138025;27;20878;-69
2021/09/24 07:38:49;;;;;;;0.30;0.30;;;19.30;94.00;;;;;;5138048;27;20394;-67
2021/09/24 07:41:16;;;;;;;0.57;0.57;;;19.70;94.10;;;;;;5137639;27;20399;-67
2021/09/24 07:43:43;;;;;;;0.30;0.30;;;20.20;93.70;;;;;;5137253;27;20489;-68
2021/09/24 07:46:10;;;;;;;0.30;0.30;;;20.50;93.60;;;;;;5137381;27;20411;-68
2021/09/24 07:48:35;;;;;;;3.23;2.20;;;20.60;92.50;;;;;;5137480;27;20405;-67
2021/09/24 07:51:03;;;;;;;0.70;0.70;;;20.70;92.50;;;;;;5137390;27;20805;-68
2021/09/24 07:53:29;;;;;;;0.70;0.70;;;20.50;92.00;;;;;;5137136;27;20209;-69
2021/09/24 07:55:55;;;;;;;0.30;0.30;;;20.10;92.50;;;;;;5137417;27;20398;-68
2021/09/24 07:58:21;;;;;;;0.87;0.87;;;19.80;93.20;;;;;;5137734;27;20401;-67
2021/09/24 08:00:47;;;;;;;0.60;0.60;;;19.70;94.00;;;;;;5137286;27;20678;-68
2021/09/24 08:03:12;;;;;;;0.87;0.87;;;19.50;93.70;;;;;;5136867;27;20195;-69
2021/09/24 08:05:38;;;;;;;0.50;0.50;;;19.20;94.30;;;;;;5137558;27;20398;-68
2021/09/24 08:08:05;;;;;;;0.63;0.63;;;19.30;95.30;;;;;;5119135;27;20171;-67
2021/09/24 08:10:30;;;;;;;0.30;0.30;;;19.80;95.20;;;;;;5119097;27;20656;-68
2021/09/24 08:12:56;;;;;;;0.50;0.50;;;20.80;93.00;;;;;;5136924;27;20482;-69
2021/09/24 08:15:22;;;;;;;1.53;1.43;;;22.30;91.00;;;;;;5136862;27;20174;-67
2021/09/24 08:17:48;;;;;;;0.30;0.30;;;23.00;89.60;;;;;;5137101;27;20191;-69
2021/09/24 08:20:15;;;;;;;0.30;0.30;;;23.50;86.30;;;;;;5137154;27;20964;-68
2021/09/24 08:22:41;;;;;;;0.30;0.30;;;23.20;83.40;;;;;;5137082;27;20228;-68
2021/09/24 08:25:07;;;;;;;0.30;0.30;;;23.60;85.50;;;;;;5136809;27;20468;-68
2021/09/24 08:27:33;;;;;;;0.30;0.30;;;24.90;81.70;;;;;;5136908;27;20401;-70
2021/09/24 08:29:59;;;;;;;0.40;0.40;;;25.80;77.60;;;;;;5136781;27;20393;-69
2021/09/24 08:32:24;;;;;;;0.40;0.40;;;26.20;70.50;;;;;;5136725;27;20245;-69
2021/09/24 08:34:50;;;;;;;0.63;0.63;;;26.40;73.30;;;;;;5136758;27;20171;-68
2021/09/24 08:37:15;;;;;;;0.30;0.30;;;26.70;69.80;;;;;;5136920;27;20248;-69
2021/09/24 08:39:41;;;;;;;0.30;0.30;;;27.10;69.40;;;;;;5136643;27;20216;-69
2021/09/24 08:42:07;;;;;;;0.60;0.60;;;27.70;67.20;;;;;;5136628;27;20183;-69
2021/09/24 08:44:33;;;;;;;0.30;0.30;;;29.00;59.80;;;;;;5136319;27;20168;-68
2021/09/24 08:46:59;;;;;;;0.30;0.30;;;30.50;56.80;;;;;;5136103;27;20213;-70
2021/09/24 08:49:25;;;;;;;0.37;0.37;;;31.60;53.30;;;;;;5136651;27;20786;-69
2021/09/24 08:51:50;;;;;;;0.30;0.30;;;32.40;49.70;;;;;;5118055;27;20468;-70
2021/09/24 08:54:16;;;;;;;0.40;0.40;;;33.10;46.50;;;;;;5136259;27;20172;-67
2021/09/24 08:56:42;;;;;;;0.40;0.40;;;33.10;44.20;;;;;;5136054;27;20171;-69
2021/09/24 08:59:07;;;;;;;0.60;0.60;;;32.80;45.60;;;;;;5136200;27;20581;-67
2021/09/24 09:01:33;;;;;;;0.93;0.50;;;32.80;45.20;;;;;;5136224;27;20186;-67
2021/09/24 09:03:59;;;;;;;0.30;0.30;;;33.00;45.70;;;;;;5135906;27;20163;-69
2021/09/24 09:06:29;;;;;;;0.30;0.30;;;33.30;44.00;;;;;;5136196;27;20252;-69
2021/09/24 09:09:03;;;;;;;0.67;0.67;;;33.70;43.70;;;;;;5135903;27;20155;-69
2021/09/24 09:11:30;;;;;;;0.40;0.40;;;34.30;41.50;;;;;;5135738;27;20455;-70
2021/09/24 09:13:59;;;;;;;0.40;0.40;;;34.40;41.10;;;;;;5135627;27;20393;-70
2021/09/24 09:16:29;;;;;;;0.67;0.67;;;34.70;39.90;;;;;;5136044;27;20455;-69
2021/09/24 09:19:13;;;;;;;0.47;0.47;;;34.80;39.00;;;;;;5136213;27;20401;-69
2021/09/24 09:21:42;;;;;;;0.43;0.43;;;35.00;38.60;;;;;;5136160;27;20845;-68
2021/09/24 09:24:26;;;;;;;0.60;0.60;;;35.00;38.80;;;;;;5135489;27;20485;-70
2021/09/24 09:27:15;;;;;;;1.10;1.07;;;35.10;38.70;;;;;;5136051;27;20408;-69
2021/09/24 09:29:56;;;;;;;0.50;0.50;;;35.10;38.20;;;;;;5135838;27;20393;-68
2021/09/24 09:32:24;;;;;;;0.83;0.83;;;34.90;38.40;;;;;;5135761;27;20464;-69
2021/09/24 09:34:50;;;;;;;0.40;0.40;;;35.20;36.80;;;;;;5117099;27;20419;-69
2021/09/24 09:37:17;;;;;;;0.30;0.30;;;35.30;37.40;;;;;;5135424;27;20488;-69
2021/09/24 09:39:43;;;;;;;0.30;0.30;;;35.30;35.70;;;;;;5135669;27;20172;-70
2021/09/24 09:42:09;;;;;;;0.40;0.40;;;35.30;35.00;;;;;;5135763;27;20432;-69
2021/09/24 09:44:35;;;;;;;0.50;0.50;;;35.10;35.70;;;;;;5135204;27;20429;-68
2021/09/24 09:47:01;;;;;;;0.97;0.87;;;34.70;35.80;;;;;;5135454;27;20262;-68
2021/09/24 09:49:29;;;;;;;0.67;0.67;;;33.90;36.30;;;;;;5135511;27;20495;-69
2021/09/24 09:52:14;;;;;;;0.30;0.30;;;33.50;37.10;;;;;;5135028;27;20226;-69
2021/09/24 09:54:40;;;;;;;0.30;0.30;;;33.00;35.70;;;;;;5134902;27;20488;-67
2021/09/24 09:57:18;;;;;;;0.33;0.33;;;32.90;37.80;;;;;;5135608;27;20404;-68
2021/09/24 09:59:53;;;;;;;0.80;0.80;;;32.70;39.20;;;;;;5135178;27;20822;-69
2021/09/24 10:02:28;;;;;;;0.30;0.30;;;32.70;37.70;;;;;;5116335;27;20934;-70
2021/09/24 10:04:54;;;;;;;1.90;1.57;;;32.50;38.40;;;;;;5135140;27;20397;-68
2021/09/24 10:07:28;;;;;;;0.30;0.30;;;32.20;36.20;;;;;;5134886;27;20492;-68
2021/09/24 10:10:03;;;;;;;0.30;0.30;;;32.10;40.60;;;;;;5134780;27;20640;-69
2021/09/24 10:12:28;;;;;;;0.40;0.40;;;32.50;39.70;;;;;;5135106;27;20433;-68
2021/09/24 10:14:54;;;;;;;0.60;0.60;;;32.70;42.20;;;;;;5134984;27;20393;-68
2021/09/24 10:17:21;;;;;;;0.77;0.70;;;32.90;40.30;;;;;;5134907;27;20633;-68
2021/09/24 10:19:48;;;;;;;0.60;0.40;;;33.00;38.60;;;;;;5135236;27;20166;-69
2021/09/24 10:22:14;;;;;;;1.63;1.57;;;32.70;40.10;;;;;;5133769;27;20484;-70
2021/09/24 10:24:40;;;;;;;0.40;0.40;;;32.00;41.30;;;;;;5134764;27;20820;-68
2021/09/24 10:27:10;;;;;;;0.30;0.30;;;31.40;41.90;;;;;;5134826;27;20174;-67
2021/09/24 10:29:41;;;;;;;1.13;0.50;;;31.40;43.80;;;;;;5134996;27;20443;-69
2021/09/24 10:32:28;;;;;;;0.60;0.60;;;31.70;41.60;;;;;;5134581;27;20441;-68
2021/09/24 10:35:00;;;;;;;0.83;0.50;;;31.80;41.70;;;;;;5134418;28;20732;-69
2021/09/24 10:37:28;;;;;;;0.30;0.30;;;31.60;41.40;;;;;;5134725;28;20428;-70
2021/09/24 10:39:59;;;;;;;0.40;0.40;;;31.20;43.00;;;;;;5134929;28;20428;-69
2021/09/24 10:42:24;;;;;;;1.80;1.07;;;30.70;43.30;;;;;;5134476;28;20428;-69
2021/09/24 10:45:21;;;;;;;1.27;0.70;;;30.70;43.40;;;;;;5134281;28;20890;-68
2021/09/24 10:48:01;;;;;;;0.63;0.63;;;30.40;45.70;;;;;;5134481;28;20210;-69
2021/09/24 10:50:30;;;;;;;0.30;0.30;;;29.50;45.10;;;;;;5134527;28;20439;-69
2021/09/24 10:53:12;;;;;;;0.30;0.30;;;28.70;46.50;;;;;;5134153;28;20416;-69
2021/09/24 10:55:44;;;;;;;0.40;0.40;;;27.70;46.70;;;;;;5134323;28;20770;-69
2021/09/24 10:58:26;;;;;;;0.30;0.30;;;27.20;49.10;;;;;;5134241;28;20445;-68
2021/09/24 11:01:14;;;;;;;0.30;0.30;;;27.00;52.50;;;;;;5134578;28;20428;-68
2021/09/24 11:03:59;;;;;;;0.97;0.53;;;26.60;50.70;;;;;;5134547;28;20897;-68
2021/09/24 11:06:46;;;;;;;0.43;0.40;;;25.70;52.80;;;;;;5134591;28;20397;-68
2021/09/24 11:09:14;;;;;;;1.80;0.50;;;24.80;55.30;;;;;;5134528;28;20409;-68
2021/09/24 11:11:46;;;;;;;1.00;1.00;;;24.40;55.70;;;;;;5134391;28;20966;-68
2021/09/24 11:14:28;;;;;;;0.30;0.30;;;24.00;55.60;;;;;;5133932;28;20747;-67
2021/09/24 11:16:54;;;;;;;0.70;0.70;;;23.60;58.70;;;;;;5134470;28;20379;-67
2021/09/24 11:19:47;;;;;;;0.30;0.30;;;23.50;57.50;;;;;;5134537;28;20405;-68
2021/09/24 11:22:39;;;;;;;0.50;0.50;;;23.40;56.90;;;;;;5134286;28;20399;-68
2021/09/24 11:25:08;;;;;;;0.30;0.30;;;23.50;56.80;;;;;;5129541;28;20420;-68
2021/09/24 11:27:43;;;;;;;0.30;0.30;;;23.40;58.10;;;;;;5134217;28;20538;-68
2021/09/24 11:30:18;;;;;;;0.87;0.67;;;23.30;58.20;;;;;;5134420;28;20412;-69
2021/09/24 11:32:50;;;;;;;1.10;1.10;;;23.00;58.20;;;;;;5135453;27;20423;-69
2021/09/24 11:35:39;;;;;;;0.30;0.30;;;23.00;59.80;;;;;;5137621;27;20995;-69
2021/09/24 11:38:18;;;;;;;0.67;0.63;;;23.30;57.20;;;;;;5137168;27;20751;-69
2021/09/24 11:40:56;;;;;;;0.30;0.30;;;23.50;56.90;;;;;;5138068;27;20399;-68
2021/09/24 11:43:32;;;;;;;0.30;0.30;;;23.50;59.50;;;;;;5137227;27;20888;-67
2021/09/24 11:46:01;;;;;;;0.30;0.30;;;23.10;57.90;;;;;;5137562;27;20416;-69
2021/09/24 11:48:37;;;;;;;0.30;0.30;;;23.30;57.20;;;;;;5138032;27;20492;-69
2021/09/24 11:51:29;;;;;;;0.30;0.30;;;23.40;59.60;;;;;;5137889;27;20447;-67
2021/09/24 11:53:57;;;;;;;0.30;0.30;;;23.00;59.90;;;;;;5132611;27;20432;-67
2021/09/24 11:56:33;;;;;;;0.30;0.30;;;23.00;57.40;;;;;;5137983;27;20882;-69
2021/09/24 11:59:01;;;;;;;0.40;0.40;;;23.30;58.10;;;;;;5137542;27;20404;-67
2021/09/24 12:01:27;;;;;;;0.73;0.50;;;22.90;59.70;;;;;;5137501;27;20435;-69
2021/09/24 12:03:57;;;;;;;0.30;0.30;;;22.70;56.10;;;;;;5137419;27;20405;-68
2021/09/24 12:06:23;;;;;;;0.30;0.30;;;22.40;53.50;;;;;;5137335;27;20169;-69
2021/09/24 12:08:50;;;;;;;0.30;0.30;;;22.30;57.50;;;;;;5137108;27;20398;-68
2021/09/24 12:11:25;;;;;;;0.53;0.53;;;22.10;57.30;;;;;;5137099;27;20608;-67
2021/09/24 12:13:53;;;;;;;0.30;0.30;;;22.10;66.00;;;;;;5136954;27;20404;-68
2021/09/24 12:16:21;;;;;;;0.30;0.30;;;22.00;64.50;;;;;;5137037;27;20394;-69
2021/09/24 12:18:51;;;;;;;0.30;0.30;;;21.90;60.50;;;;;;5136863;27;20406;-69
2021/09/24 12:21:20;;;;;;;0.40;0.40;;;22.10;60.00;;;;;;5136792;27;20405;-69
2021/09/24 12:23:46;;;;;;;1.10;1.00;;;22.30;58.50;;;;;;5136662;27;20414;-68
2021/09/24 12:26:14;;;;;;;0.30;0.30;;;22.20;58.50;;;;;;5136619;27;20925;-67
2021/09/24 12:29:02;;;;;;;0.30;0.30;;;22.10;59.10;;;;;;5137086;27;20394;-69
2021/09/24 12:31:33;;;;;;;0.40;0.40;;;22.10;59.30;;;;;;5136643;27;20480;-68
2021/09/24 12:33:58;;;;;;;0.77;0.77;;;22.10;59.60;;;;;;5136532;27;20805;-67
2021/09/24 12:36:24;;;;;;;0.30;0.30;;;22.00;59.00;;;;;;5136528;27;20531;-67
2021/09/24 12:38:49;;;;;;;0.40;0.40;;;22.10;58.60;;;;;;5136387;27;20649;-68
2021/09/24 12:41:18;;;;;;;0.50;0.50;;;21.90;58.70;;;;;;5136904;27;20180;-69
2021/09/24 12:43:45;;;;;;;1.23;0.97;;;21.80;59.20;;;;;;5135429;27;20167;-69
2021/09/24 12:46:13;;;;;;;0.30;0.30;;;21.80;63.80;;;;;;5136156;27;20402;-67
2021/09/24 12:48:45;;;;;;;0.40;0.40;;;22.00;64.50;;;;;;5136518;27;20862;-69
2021/09/24 12:51:13;;;;;;;0.30;0.30;;;22.20;59.30;;;;;;5136426;27;20446;-69